Time;durP1;ratioP1;P1;durP2;ratioP2;P2;SDS_P1;SDS_P2;PMS_P1;PMS_P2;Temp;Humidity;BMP_temperature;BMP_pressure;BME280_temperature;BME280_humidity;BME280_pressure;Samples;Min_cycle;Max_cycle;Signal;HPM_P1;HPM_P2
2021/12/06 00:00:48;;;;;;;16.92;5.95;;;2.20;99.90;;;;;;5031404;28;20044;-72
2021/12/06 00:03:56;;;;;;;17.45;5.82;;;2.20;99.90;;;;;;5030724;28;20124;-72
2021/12/06 00:07:04;;;;;;;26.50;7.32;;;2.20;99.90;;;;;;5035223;28;20403;-72
2021/12/06 00:10:12;;;;;;;18.48;6.78;;;2.20;99.90;;;;;;5030117;28;20033;-72
2021/12/06 00:13:20;;;;;;;26.02;8.30;;;2.20;99.90;;;;;;5032706;28;20040;-71
2021/12/06 00:16:25;;;;;;;23.70;10.32;;;2.20;99.90;;;;;;5030764;28;20049;-71
2021/12/06 00:19:30;;;;;;;28.88;10.20;;;2.10;99.90;;;;;;5025732;28;20052;-71
2021/12/06 00:22:36;;;;;;;22.27;9.98;;;2.20;99.90;;;;;;5028218;28;20056;-71
2021/12/06 00:25:40;;;;;;;23.58;10.52;;;2.10;99.90;;;;;;5028556;28;20044;-72
2021/12/06 00:28:46;;;;;;;13.68;7.93;;;2.10;99.90;;;;;;5027534;28;20052;-71
2021/12/06 00:31:51;;;;;;;24.85;9.00;;;2.20;99.90;;;;;;5032160;28;20048;-71
2021/12/06 00:34:55;;;;;;;24.48;9.45;;;2.20;99.90;;;;;;5031588;28;20052;-71
2021/12/06 00:38:00;;;;;;;24.00;9.60;;;2.30;99.90;;;;;;5030564;28;20056;-71
2021/12/06 00:41:05;;;;;;;21.10;9.85;;;2.30;99.90;;;;;;5031324;28;20044;-72
2021/12/06 00:44:09;;;;;;;15.15;7.28;;;2.30;99.90;;;;;;5032286;28;20053;-72
2021/12/06 00:47:14;;;;;;;19.17;7.05;;;2.30;99.90;;;;;;5029333;28;20412;-72
2021/12/06 00:50:20;;;;;;;21.58;7.40;;;2.40;99.90;;;;;;5026644;28;20061;-72
2021/12/06 00:53:24;;;;;;;25.17;11.05;;;2.50;99.90;;;;;;5032039;28;20053;-72
2021/12/06 00:56:28;;;;;;;15.82;8.15;;;2.40;99.90;;;;;;5031709;28;20048;-72
2021/12/06 00:59:34;;;;;;;20.48;8.65;;;2.40;99.90;;;;;;5024630;28;20043;-71
2021/12/06 01:02:38;;;;;;;28.02;10.35;;;2.30;99.90;;;;;;5029915;28;20396;-72
2021/12/06 01:05:42;;;;;;;21.77;9.25;;;2.20;99.90;;;;;;5029438;28;20048;-71
2021/12/06 01:08:46;;;;;;;24.48;10.23;;;2.20;99.90;;;;;;5026107;28;20048;-71
2021/12/06 01:11:51;;;;;;;24.98;10.80;;;2.20;99.90;;;;;;5029343;28;20392;-72
2021/12/06 01:14:56;;;;;;;37.15;15.48;;;2.30;99.90;;;;;;5030988;28;20040;-72
2021/12/06 01:18:03;;;;;;;28.25;11.95;;;2.30;99.90;;;;;;5032261;28;20048;-71
2021/12/06 01:21:38;;;;;;;25.15;11.38;;;2.20;99.90;;;;;;5042156;28;20052;-72
2021/12/06 01:24:52;;;;;;;27.45;10.85;;;2.20;99.90;;;;;;5030110;28;20495;-71
2021/12/06 01:40:57;;;;;;;24.33;11.32;;;2.00;99.90;;;;;;5039551;28;20047;-72
2021/12/06 01:44:13;;;;;;;30.92;12.43;;;2.00;99.90;;;;;;5037614;28;20803;-72
2021/12/06 01:47:29;;;;;;;33.05;15.82;;;2.00;99.90;;;;;;5030269;28;20048;-72
2021/12/06 01:50:34;;;;;;;28.52;15.05;;;2.10;99.90;;;;;;5029334;28;20044;-71
2021/12/06 01:53:37;;;;;;;32.90;15.20;;;2.10;99.90;;;;;;5028382;28;20053;-72
2021/12/06 01:56:42;;;;;;;31.88;15.43;;;2.20;99.90;;;;;;5027382;28;20045;-72
2021/12/06 01:59:46;;;;;;;34.25;15.75;;;2.20;99.90;;;;;;5029311;28;20488;-72
2021/12/06 02:02:50;;;;;;;48.67;22.52;;;2.10;99.90;;;;;;5035922;28;20483;-71
2021/12/06 02:06:00;;;;;;;33.92;14.13;;;2.20;99.90;;;;;;5029304;28;20045;-72
2021/12/06 02:09:08;;;;;;;25.80;12.90;;;2.20;99.90;;;;;;5028758;28;20044;-72
2021/12/06 02:12:14;;;;;;;27.15;12.30;;;2.20;99.90;;;;;;5033569;28;20037;-72
2021/12/06 02:21:42;;;;;;;21.90;8.38;;;2.20;99.90;;;;;;5031112;28;20106;-71
2021/12/06 02:24:48;;;;;;;16.10;6.55;;;2.20;99.90;;;;;;5037914;28;20040;-71
2021/12/06 02:27:53;;;;;;;15.60;5.78;;;2.20;99.90;;;;;;5044837;28;20044;-72
2021/12/06 02:31:00;;;;;;;16.45;5.85;;;2.20;99.90;;;;;;5033063;28;20056;-71
2021/12/06 02:34:04;;;;;;;15.77;6.25;;;2.20;99.90;;;;;;5033562;28;20495;-72
2021/12/06 02:37:10;;;;;;;21.33;6.63;;;2.20;99.90;;;;;;5033589;28;20388;-72
2021/12/06 02:40:18;;;;;;;13.07;5.78;;;2.20;99.90;;;;;;5030374;28;20148;-72
2021/12/06 02:43:23;;;;;;;16.00;6.75;;;2.20;99.90;;;;;;5030579;28;20380;-72
2021/12/06 02:46:27;;;;;;;19.05;6.80;;;2.30;99.90;;;;;;5033687;28;20040;-72
2021/12/06 02:49:31;;;;;;;25.38;7.72;;;2.30;99.90;;;;;;5029764;28;20048;-72
2021/12/06 02:52:37;;;;;;;18.75;8.02;;;2.30;99.90;;;;;;5033417;28;20045;-73
2021/12/06 02:55:43;;;;;;;23.65;8.82;;;2.30;99.90;;;;;;5029349;28;20060;-72
2021/12/06 02:58:57;;;;;;;20.58;9.05;;;2.20;99.90;;;;;;5032431;28;20415;-72
2021/12/06 03:02:10;;;;;;;18.27;8.43;;;2.20;99.90;;;;;;5031628;28;20053;-72
2021/12/06 03:05:14;;;;;;;15.73;8.32;;;2.20;99.90;;;;;;5032161;28;20036;-71
2021/12/06 03:08:38;;;;;;;18.60;8.52;;;2.20;99.90;;;;;;5026852;28;20048;-72
2021/12/06 03:11:42;;;;;;;29.30;10.20;;;2.10;99.90;;;;;;5031202;28;20045;-72
2021/12/06 03:14:52;;;;;;;22.63;9.65;;;2.10;99.90;;;;;;5043100;28;20040;-72
2021/12/06 03:17:59;;;;;;;21.52;10.50;;;2.10;99.90;;;;;;5032231;28;20052;-71
2021/12/06 03:21:04;;;;;;;19.90;10.43;;;2.00;99.90;;;;;;5033243;28;20048;-72
2021/12/06 03:24:08;;;;;;;20.67;9.50;;;2.10;99.90;;;;;;5032709;28;20045;-71
2021/12/06 03:27:15;;;;;;;26.65;11.75;;;2.10;99.90;;;;;;5032511;28;20048;-72
2021/12/06 03:30:20;;;;;;;20.30;11.70;;;2.20;99.90;;;;;;5036642;28;20052;-72
2021/12/06 03:33:24;;;;;;;21.08;10.40;;;2.20;99.90;;;;;;5031764;28;20040;-72
2021/12/06 03:36:32;;;;;;;27.25;9.32;;;2.20;99.90;;;;;;5026531;28;20400;-71
2021/12/06 03:39:47;;;;;;;22.10;10.05;;;2.20;99.90;;;;;;5027974;28;20048;-71
2021/12/06 03:42:56;;;;;;;20.88;10.13;;;2.20;99.90;;;;;;5031726;28;20045;-71
2021/12/06 03:46:00;;;;;;;25.90;8.85;;;2.30;99.90;;;;;;5031230;28;20046;-72
2021/12/06 03:49:14;;;;;;;20.08;7.95;;;2.40;99.90;;;;;;5030939;28;20044;-72
2021/12/06 03:52:18;;;;;;;20.80;8.95;;;2.40;99.90;;;;;;5028469;28;20041;-71
2021/12/06 03:55:25;;;;;;;17.20;7.97;;;2.40;99.90;;;;;;5026273;28;20045;-71
2021/12/06 03:58:30;;;;;;;16.23;8.43;;;2.40;99.90;;;;;;5031220;28;20393;-72
2021/12/06 04:01:34;;;;;;;20.08;9.25;;;2.50;99.90;;;;;;5028272;28;20056;-72
2021/12/06 04:04:40;;;;;;;24.20;10.25;;;2.60;99.90;;;;;;5028812;28;20048;-72
2021/12/06 04:07:45;;;;;;;23.33;9.93;;;2.70;99.90;;;;;;5030886;28;20491;-71
2021/12/06 04:10:49;;;;;;;17.50;9.30;;;2.70;99.90;;;;;;5020037;28;20048;-71
2021/12/06 04:13:53;;;;;;;25.17;11.15;;;2.60;99.90;;;;;;5031891;28;20040;-71
2021/12/06 04:16:57;;;;;;;23.38;9.75;;;2.60;99.90;;;;;;5030364;28;20040;-72
2021/12/06 04:20:05;;;;;;;25.13;9.57;;;2.50;99.90;;;;;;5030533;28;20056;-72
2021/12/06 04:23:10;;;;;;;21.75;9.68;;;2.50;99.90;;;;;;5029937;28;20037;-72
2021/12/06 04:26:15;;;;;;;22.20;10.50;;;2.40;99.90;;;;;;5025249;28;20052;-72
2021/12/06 04:29:20;;;;;;;21.40;10.70;;;2.50;99.90;;;;;;5031569;28;20048;-72
2021/12/06 04:32:25;;;;;;;22.90;11.00;;;2.50;99.90;;;;;;5030609;28;20053;-71
2021/12/06 04:35:33;;;;;;;24.30;9.93;;;2.50;99.90;;;;;;5025722;28;20044;-72
2021/12/06 04:38:38;;;;;;;19.38;8.93;;;2.50;99.90;;;;;;5028683;28;20056;-71
2021/12/06 04:41:43;;;;;;;27.25;9.80;;;2.40;99.90;;;;;;5027698;28;20044;-71
2021/12/06 04:44:49;;;;;;;21.50;8.93;;;2.30;99.90;;;;;;5030085;28;20384;-71
2021/12/06 04:47:55;;;;;;;25.90;9.50;;;2.30;99.90;;;;;;5018229;28;20037;-72
2021/12/06 04:51:00;;;;;;;22.17;10.20;;;2.20;99.90;;;;;;5030093;28;20045;-72
2021/12/06 04:54:06;;;;;;;22.85;9.98;;;2.20;99.90;;;;;;5029973;28;20052;-72
2021/12/06 04:57:23;;;;;;;21.90;8.98;;;2.30;99.90;;;;;;5025059;28;20475;-71
2021/12/06 05:00:48;;;;;;;15.95;7.53;;;2.30;99.90;;;;;;5030679;28;20048;-71
2021/12/06 05:03:57;;;;;;;16.77;8.70;;;2.20;99.90;;;;;;5030452;28;20049;-72
2021/12/06 05:07:15;;;;;;;19.40;7.68;;;2.40;99.90;;;;;;5029231;28;20384;-72
2021/12/06 05:10:21;;;;;;;19.48;8.15;;;2.40;99.90;;;;;;5023250;28;20652;-71
2021/12/06 05:13:27;;;;;;;19.25;7.60;;;2.50;99.90;;;;;;5025311;28;20040;-72
2021/12/06 05:16:35;;;;;;;20.17;7.50;;;2.40;99.90;;;;;;5029253;28;20044;-71
2021/12/06 05:19:39;;;;;;;14.27;6.70;;;2.40;99.90;;;;;;5025715;28;20056;-71
2021/12/06 05:22:45;;;;;;;17.90;5.57;;;2.30;99.90;;;;;;5027172;28;20060;-71
2021/12/06 05:25:51;;;;;;;12.55;5.25;;;2.30;99.90;;;;;;5031043;28;20044;-72
2021/12/06 05:28:59;;;;;;;9.65;4.93;;;2.30;99.90;;;;;;5026995;28;20450;-72
2021/12/06 05:32:04;;;;;;;7.97;4.05;;;2.40;99.90;;;;;;5029584;28;20472;-71
2021/12/06 05:35:10;;;;;;;8.05;4.00;;;2.40;99.90;;;;;;5029585;28;20038;-71
2021/12/06 05:38:14;;;;;;;2.92;1.95;;;2.40;99.90;;;;;;5025080;28;20037;-71
2021/12/06 05:41:19;;;;;;;3.97;2.50;;;2.40;99.90;;;;;;5024383;28;20495;-71
2021/12/06 05:44:23;;;;;;;6.80;3.30;;;2.50;99.90;;;;;;5030997;28;20041;-71
2021/12/06 05:47:27;;;;;;;4.82;2.55;;;2.50;99.90;;;;;;5030018;28;20041;-71
2021/12/06 05:50:31;;;;;;;7.47;2.00;;;2.50;99.90;;;;;;5033247;28;20400;-71
2021/12/06 05:53:35;;;;;;;3.83;1.88;;;2.50;99.90;;;;;;5035235;28;20037;-71
2021/12/06 05:56:39;;;;;;;2.65;2.10;;;2.40;99.90;;;;;;5034386;28;20041;-71
2021/12/06 05:59:43;;;;;;;4.30;1.75;;;2.40;99.90;;;;;;5030739;28;20041;-71
2021/12/06 06:02:48;;;;;;;1.85;1.27;;;2.40;99.90;;;;;;5034951;28;20037;-71
2021/12/06 06:05:52;;;;;;;2.40;1.23;;;2.50;99.90;;;;;;5034161;28;20045;-71
2021/12/06 06:08:57;;;;;;;1.17;0.90;;;2.50;99.90;;;;;;5033393;28;20045;-71
2021/12/06 06:12:04;;;;;;;3.05;1.90;;;2.70;99.90;;;;;;5034093;28;20049;-71
2021/12/06 06:15:09;;;;;;;3.08;1.20;;;2.80;99.90;;;;;;5034222;28;20516;-71
2021/12/06 06:18:13;;;;;;;1.65;1.02;;;2.80;99.90;;;;;;5026037;28;20038;-71
2021/12/06 06:21:19;;;;;;;1.02;0.70;;;2.80;99.90;;;;;;5032459;28;20041;-71
2021/12/06 06:24:23;;;;;;;1.33;0.93;;;2.80;99.90;;;;;;5033251;28;20516;-71
2021/12/06 06:27:26;;;;;;;1.13;0.88;;;2.80;99.90;;;;;;5028294;28;20041;-72
2021/12/06 06:30:31;;;;;;;1.30;0.93;;;2.90;99.90;;;;;;5034129;28;20480;-71
2021/12/06 06:33:35;;;;;;;2.28;1.10;;;3.00;99.90;;;;;;5033588;28;20481;-71
2021/12/06 06:36:39;;;;;;;1.58;1.17;;;3.10;99.90;;;;;;5033537;28;20037;-71
2021/12/06 06:39:43;;;;;;;3.03;0.98;;;3.20;99.90;;;;;;5029818;28;20562;-71
2021/12/06 06:42:47;;;;;;;1.73;0.93;;;3.20;99.90;;;;;;5031721;28;20037;-71
2021/12/06 06:45:52;;;;;;;1.67;1.05;;;3.30;99.90;;;;;;5031225;28;20045;-71
2021/12/06 06:48:57;;;;;;;1.33;1.00;;;3.20;99.90;;;;;;5033038;28;20041;-72
2021/12/06 06:52:02;;;;;;;1.65;1.20;;;3.10;99.90;;;;;;5033928;28;20581;-72
2021/12/06 06:55:07;;;;;;;1.30;0.90;;;3.10;99.90;;;;;;5033377;28;20037;-72
2021/12/06 06:58:11;;;;;;;1.00;0.90;;;3.00;99.90;;;;;;5032245;28;20045;-71
2021/12/06 07:01:15;;;;;;;1.02;0.80;;;3.00;99.90;;;;;;5020793;28;20358;-72
2021/12/06 07:04:19;;;;;;;1.65;1.17;;;3.00;99.90;;;;;;5030540;28;20034;-72
2021/12/06 07:07:23;;;;;;;1.73;1.23;;;3.10;99.90;;;;;;5028038;28;20369;-71
2021/12/06 07:10:27;;;;;;;2.10;1.35;;;3.10;99.90;;;;;;5031705;28;20042;-71
2021/12/06 07:13:36;;;;;;;2.05;1.40;;;3.10;99.90;;;;;;5030774;28;20041;-72
2021/12/06 07:16:42;;;;;;;2.28;1.15;;;3.20;99.90;;;;;;5031736;28;20042;-71
2021/12/06 07:19:46;;;;;;;4.18;1.85;;;3.30;99.90;;;;;;5029652;28;20041;-72
2021/12/06 07:22:52;;;;;;;2.60;1.40;;;3.40;99.90;;;;;;5027777;28;20508;-72
2021/12/06 07:25:56;;;;;;;4.72;2.35;;;3.50;99.90;;;;;;5031518;28;20412;-72
2021/12/06 07:29:01;;;;;;;5.13;1.40;;;3.70;99.90;;;;;;5031768;28;20045;-71
2021/12/06 07:32:05;;;;;;;1.50;1.15;;;3.80;99.90;;;;;;5033472;28;20041;-71
2021/12/06 07:35:12;;;;;;;5.03;2.63;;;4.10;99.90;;;;;;5029634;28;20034;-72
2021/12/06 07:38:16;;;;;;;11.85;4.40;;;4.20;99.90;;;;;;5025812;28;20037;-72
2021/12/06 07:41:23;;;;;;;11.18;4.93;;;4.40;99.90;;;;;;5032969;28;20048;-72
2021/12/06 07:44:27;;;;;;;14.43;5.43;;;4.50;99.90;;;;;;5032190;28;20046;-72
2021/12/06 07:47:31;;;;;;;13.70;5.85;;;4.60;99.90;;;;;;5031731;28;20090;-72
2021/12/06 07:50:35;;;;;;;14.05;5.25;;;4.80;99.90;;;;;;5026021;28;20392;-72
2021/12/06 07:53:40;;;;;;;8.20;3.53;;;5.60;99.90;;;;;;5029645;28;20037;-71
2021/12/06 07:56:44;;;;;;;3.22;2.10;;;6.60;99.90;;;;;;5029897;28;20033;-72
2021/12/06 07:59:48;;;;;;;9.70;4.03;;;7.70;99.90;;;;;;5028360;28;20799;-72
2021/12/06 08:02:53;;;;;;;5.18;2.50;;;9.00;99.90;;;;;;5029980;28;20037;-71
2021/12/06 08:05:58;;;;;;;6.50;3.63;;;10.20;99.90;;;;;;5027369;28;20373;-72
2021/12/06 08:09:02;;;;;;;2.28;1.40;;;12.50;99.90;;;;;;5029389;28;20049;-72
2021/12/06 08:12:07;;;;;;;1.80;1.02;;;14.90;99.90;;;;;;5031567;28;20054;-72
2021/12/06 08:15:11;;;;;;;0.88;0.60;;;15.90;99.10;;;;;;5030949;28;20645;-73
2021/12/06 08:18:15;;;;;;;1.77;0.85;;;15.60;99.10;;;;;;5030576;28;20056;-72
2021/12/06 08:21:21;;;;;;;0.90;0.70;;;17.50;97.70;;;;;;5031879;28;20388;-72
2021/12/06 08:24:26;;;;;;;1.30;0.60;;;19.50;94.50;;;;;;5028332;28;20381;-72
2021/12/06 08:27:30;;;;;;;0.52;0.45;;;21.10;92.00;;;;;;5031883;28;20048;-72
2021/12/06 08:30:34;;;;;;;0.63;0.60;;;19.30;87.60;;;;;;5027024;28;20037;-73
2021/12/06 08:33:41;;;;;;;0.70;0.50;;;20.90;89.60;;;;;;5027892;28;20036;-72
2021/12/06 08:36:44;;;;;;;0.80;0.50;;;18.60;88.60;;;;;;5029558;28;20044;-73
2021/12/06 08:39:48;;;;;;;1.42;0.80;;;21.60;90.40;;;;;;5030850;28;20511;-72
2021/12/06 08:42:52;;;;;;;0.77;0.70;;;22.90;86.30;;;;;;5031172;28;20053;-72
2021/12/06 08:46:07;;;;;;;3.33;0.80;;;23.10;81.90;;;;;;5029645;28;20040;-73
2021/12/06 08:49:11;;;;;;;1.10;0.60;;;23.60;80.70;;;;;;5030763;28;20057;-73
2021/12/06 08:52:16;;;;;;;1.02;0.57;;;24.50;75.60;;;;;;5030629;28;20040;-72
2021/12/06 08:55:22;;;;;;;1.65;0.52;;;23.60;78.00;;;;;;5029108;28;20566;-72
2021/12/06 08:58:26;;;;;;;0.93;0.68;;;23.10;77.90;;;;;;5029035;28;20041;-72
2021/12/06 09:01:30;;;;;;;0.70;0.60;;;23.10;76.70;;;;;;5035232;28;20108;-73
2021/12/06 09:04:38;;;;;;;0.98;0.50;;;23.20;77.40;;;;;;5030993;28;20044;-73
2021/12/06 09:07:43;;;;;;;0.77;0.60;;;23.20;77.50;;;;;;5026247;28;20048;-73
2021/12/06 09:10:50;;;;;;;0.90;0.70;;;23.40;74.10;;;;;;5028159;28;20060;-72
2021/12/06 09:13:54;;;;;;;1.77;0.60;;;23.10;75.20;;;;;;5029214;28;20045;-72
2021/12/06 09:16:58;;;;;;;0.55;0.45;;;23.10;74.80;;;;;;5028710;28;20049;-72
2021/12/06 09:20:06;;;;;;;0.82;0.50;;;23.20;73.90;;;;;;5027857;28;20495;-72
2021/12/06 09:23:12;;;;;;;0.68;0.52;;;23.20;75.30;;;;;;5028051;28;20067;-72
2021/12/06 09:26:16;;;;;;;1.20;0.80;;;23.90;75.60;;;;;;5024905;28;20045;-72
2021/12/06 09:29:24;;;;;;;0.98;0.60;;;24.50;72.90;;;;;;5026909;28;20052;-73
2021/12/06 09:32:28;;;;;;;1.60;0.95;;;25.20;75.50;;;;;;5029205;28;20045;-73
2021/12/06 09:35:36;;;;;;;5.38;1.02;;;26.50;71.50;;;;;;5029235;28;20033;-72
2021/12/06 09:38:42;;;;;;;2.25;1.10;;;26.90;71.00;;;;;;5009637;28;20045;-72
2021/12/06 09:41:46;;;;;;;2.35;1.10;;;26.50;67.90;;;;;;5029888;28;20377;-72
2021/12/06 09:44:51;;;;;;;1.45;1.10;;;25.80;72.00;;;;;;5029085;28;20049;-73
2021/12/06 09:47:56;;;;;;;1.10;1.00;;;26.70;70.60;;;;;;5028760;28;20589;-72
2021/12/06 09:51:07;;;;;;;1.30;1.10;;;27.50;68.80;;;;;;5028503;28;20060;-72
2021/12/06 09:54:12;;;;;;;2.10;1.13;;;27.30;66.90;;;;;;5024341;28;20040;-72
2021/12/06 09:57:16;;;;;;;1.10;0.65;;;27.90;67.40;;;;;;5026435;28;20049;-72
2021/12/06 10:00:24;;;;;;;0.90;0.80;;;28.20;66.30;;;;;;5028007;28;20483;-72
2021/12/06 10:03:30;;;;;;;1.48;1.08;;;28.20;65.90;;;;;;5023573;28;20040;-73
2021/12/06 10:06:35;;;;;;;2.17;0.77;;;27.60;68.90;;;;;;5023895;28;20041;-72
2021/12/06 10:09:41;;;;;;;2.97;1.00;;;26.90;67.50;;;;;;5028712;28;20049;-72
2021/12/06 10:12:50;;;;;;;0.95;0.70;;;27.30;65.50;;;;;;5028659;28;20048;-72
2021/12/06 10:15:55;;;;;;;1.00;0.70;;;26.70;65.70;;;;;;5027112;28;20033;-72
2021/12/06 10:18:59;;;;;;;1.23;0.70;;;27.40;65.90;;;;;;5029224;28;20037;-72
2021/12/06 10:22:05;;;;;;;1.15;0.80;;;27.50;65.30;;;;;;5031973;28;20052;-72
2021/12/06 10:25:09;;;;;;;0.52;0.43;;;27.90;63.20;;;;;;5029858;28;20503;-73
2021/12/06 10:28:16;;;;;;;0.50;0.40;;;28.00;62.70;;;;;;5026361;28;20040;-72
2021/12/06 10:31:20;;;;;;;0.63;0.40;;;27.10;65.30;;;;;;5030174;28;20052;-72
2021/12/06 10:34:27;;;;;;;2.28;0.43;;;27.20;65.50;;;;;;5032888;28;20041;-72
2021/12/06 10:37:45;;;;;;;0.20;0.20;;;27.70;65.60;;;;;;5032762;28;20376;-72
2021/12/06 10:40:50;;;;;;;1.85;0.30;;;28.30;64.20;;;;;;5027260;28;20380;-72
2021/12/06 10:44:09;;;;;;;0.30;0.30;;;29.40;62.80;;;;;;5031847;28;20041;-72
2021/12/06 10:47:13;;;;;;;2.20;0.40;;;28.80;61.30;;;;;;5032711;28;20041;-71
2021/12/06 10:50:19;;;;;;;0.52;0.40;;;27.60;62.70;;;;;;5031066;28;20036;-72
2021/12/06 10:53:31;;;;;;;0.47;0.40;;;27.30;62.40;;;;;;5033728;28;20056;-71
2021/12/06 10:56:42;;;;;;;0.30;0.30;;;26.40;63.30;;;;;;5028706;28;20037;-71
2021/12/06 10:59:46;;;;;;;1.75;0.73;;;26.10;64.30;;;;;;5030394;28;20049;-71
2021/12/06 11:02:50;;;;;;;0.68;0.38;;;24.20;63.00;;;;;;5032326;28;20060;-73
2021/12/06 11:06:03;;;;;;;1.23;0.60;;;23.60;64.70;;;;;;5032222;28;20053;-71
2021/12/06 11:09:08;;;;;;;0.75;0.50;;;23.00;66.70;;;;;;5031509;28;20586;-72
2021/12/06 11:12:19;;;;;;;0.88;0.30;;;24.80;64.70;;;;;;5027994;28;20041;-72
2021/12/06 11:15:23;;;;;;;0.70;0.60;;;24.50;64.70;;;;;;5033276;28;20033;-72
2021/12/06 11:18:43;;;;;;;0.98;0.50;;;24.60;65.80;;;;;;5019780;28;20067;-72
2021/12/06 11:21:49;;;;;;;1.40;0.80;;;25.30;65.20;;;;;;5026151;28;20044;-72
2021/12/06 11:24:55;;;;;;;1.15;0.60;;;24.80;65.20;;;;;;5032402;28;20060;-72
2021/12/06 11:27:59;;;;;;;2.03;1.20;;;24.80;66.00;;;;;;5030311;28;20036;-72
2021/12/06 11:31:05;;;;;;;1.15;0.73;;;22.80;65.90;;;;;;5028234;28;20499;-72
2021/12/06 11:34:10;;;;;;;0.90;0.63;;;21.00;70.70;;;;;;5030238;28;20040;-72
2021/12/06 11:37:19;;;;;;;1.45;0.80;;;21.40;68.60;;;;;;5026161;28;20044;-72
2021/12/06 11:40:28;;;;;;;1.38;0.90;;;21.60;69.50;;;;;;5028478;28;20040;-72
2021/12/06 11:43:36;;;;;;;1.67;1.00;;;21.60;70.20;;;;;;5029720;28;20052;-72
2021/12/06 11:46:41;;;;;;;1.17;0.90;;;23.00;69.00;;;;;;5028504;28;20036;-72
2021/12/06 11:49:53;;;;;;;1.90;0.98;;;23.40;66.10;;;;;;5029220;28;20037;-73
2021/12/06 11:53:03;;;;;;;1.75;0.80;;;22.30;68.40;;;;;;5036995;28;20498;-73
2021/12/06 11:56:22;;;;;;;3.30;0.93;;;23.10;66.50;;;;;;5029386;28;20587;-73
2021/12/06 11:59:26;;;;;;;2.75;1.13;;;22.80;65.50;;;;;;5027960;28;20047;-73
2021/12/06 12:02:36;;;;;;;1.40;1.02;;;21.70;68.40;;;;;;5027641;28;20056;-73
2021/12/06 12:05:40;;;;;;;3.78;0.90;;;21.70;67.80;;;;;;5030675;28;20483;-73
2021/12/06 12:08:45;;;;;;;1.75;1.00;;;22.70;67.10;;;;;;5029659;28;20052;-71
2021/12/06 12:11:59;;;;;;;1.40;0.90;;;22.40;66.10;;;;;;5028598;28;20049;-73
2021/12/06 12:15:04;;;;;;;3.67;1.40;;;22.80;68.50;;;;;;5031958;28;20095;-72
2021/12/06 12:18:08;;;;;;;2.10;1.00;;;23.60;64.90;;;;;;5031447;28;20479;-73
2021/12/06 12:21:13;;;;;;;1.30;0.65;;;25.00;64.80;;;;;;5030946;28;20052;-72
2021/12/06 12:24:18;;;;;;;2.30;0.88;;;25.50;64.20;;;;;;5028445;28;20088;-72
2021/12/06 12:30:33;;;;;;;1.55;0.80;;;26.70;61.10;;;;;;5028060;28;20044;-72
2021/12/06 12:33:38;;;;;;;1.35;1.10;;;26.40;62.30;;;;;;5026391;28;20056;-73
2021/12/06 12:36:42;;;;;;;1.65;0.90;;;26.90;62.30;;;;;;5028722;28;20048;-72
2021/12/06 12:39:57;;;;;;;1.88;0.80;;;27.30;62.60;;;;;;5028576;28;20052;-73
2021/12/06 12:43:10;;;;;;;1.23;0.75;;;27.70;60.70;;;;;;5031113;28;20049;-73
2021/12/06 12:46:34;;;;;;;1.23;0.70;;;27.50;58.20;;;;;;5027014;28;20048;-72
2021/12/06 12:49:45;;;;;;;1.00;0.50;;;27.20;57.80;;;;;;5029884;28;20036;-72
2021/12/06 12:52:59;;;;;;;;;;;26.70;58.00;;;;;;5030073;28;20495;-72
2021/12/06 12:56:21;;;;;;;0.73;0.63;;;26.50;57.70;;;;;;5030715;28;20477;-72
2021/12/06 12:59:30;;;;;;;;;;;25.70;59.40;;;;;;5027257;28;20040;-72
2021/12/06 13:02:36;;;;;;;8.73;6.47;;;24.30;58.30;;;;;;5030558;28;19916;-72
2021/12/06 13:05:39;;;;;;;1.48;0.80;;;24.60;60.10;;;;;;5030635;28;20391;-72
2021/12/06 13:08:44;;;;;;;0.85;0.70;;;25.60;58.70;;;;;;5028061;28;20044;-73
2021/12/06 13:11:55;;;;;;;1.15;0.55;;;25.70;60.10;;;;;;5024794;28;20117;-72
2021/12/06 13:15:13;;;;;;;2.72;0.55;;;26.20;58.20;;;;;;5029297;28;20049;-72
2021/12/06 13:18:29;;;;;;;1.45;0.60;;;26.60;57.10;;;;;;5030502;28;20656;-72
2021/12/06 13:21:36;;;;;;;0.88;0.60;;;24.30;58.20;;;;;;5031653;28;20061;-72
2021/12/06 13:24:48;;;;;;;1.10;0.88;;;24.30;56.50;;;;;;5030396;28;20067;-73
2021/12/06 13:28:06;;;;;;;5.95;2.65;;;21.70;59.30;;;;;;5028635;28;20048;-72
2021/12/06 13:31:22;;;;;;;5.03;2.95;;;20.10;61.00;;;;;;5029748;28;20523;-72
2021/12/06 13:34:29;;;;;;;2.70;1.30;;;18.70;65.70;;;;;;5030504;28;20044;-72
2021/12/06 13:37:33;;;;;;;1.60;0.70;;;20.40;65.40;;;;;;5029373;28;20044;-72
2021/12/06 13:40:51;;;;;;;1.88;1.00;;;22.10;62.40;;;;;;5029419;28;20057;-72
2021/12/06 13:44:06;;;;;;;1.33;0.68;;;22.90;58.10;;;;;;5026303;28;20049;-72
2021/12/06 13:47:15;;;;;;;1.13;0.50;;;23.80;61.00;;;;;;5028942;28;20060;-72
2021/12/06 13:50:27;;;;;;;0.68;0.50;;;24.60;58.50;;;;;;5029389;28;20044;-72
2021/12/06 13:53:35;;;;;;;1.10;0.70;;;22.20;55.70;;;;;;5026650;28;20056;-72
2021/12/06 13:56:51;;;;;;;3.38;1.73;;;19.20;62.50;;;;;;5028832;28;20053;-72
2021/12/06 13:59:59;;;;;;;3.85;2.50;;;19.20;64.70;;;;;;5029043;28;20044;-72
2021/12/06 14:03:05;;;;;;;1.88;0.85;;;19.30;65.00;;;;;;5029622;28;20045;-72
2021/12/06 14:06:14;;;;;;;2.70;1.13;;;20.40;60.20;;;;;;5033053;28;20050;-72
2021/12/06 14:09:26;;;;;;;3.30;1.35;;;20.80;60.90;;;;;;5032282;28;20044;-72
2021/12/06 14:12:33;;;;;;;1.92;1.30;;;20.30;63.20;;;;;;5030479;28;20045;-73
2021/12/06 14:18:51;;;;;;;2.78;1.02;;;16.90;65.00;;;;;;5028493;28;20396;-72
2021/12/06 14:21:58;;;;;;;3.30;1.10;;;16.20;65.40;;;;;;5030945;28;20475;-72
2021/12/06 14:25:04;;;;;;;1.88;1.17;;;16.80;65.50;;;;;;5032396;28;20048;-72
2021/12/06 14:28:09;;;;;;;2.42;1.48;;;16.80;66.90;;;;;;5031254;28;20036;-73
2021/12/06 14:31:14;;;;;;;3.45;1.98;;;17.10;65.80;;;;;;5026218;28;20783;-70
2021/12/06 14:34:20;;;;;;;3.10;1.30;;;16.50;66.60;;;;;;5031192;28;20068;-71
2021/12/06 14:37:26;;;;;;;3.13;1.55;;;15.00;67.70;;;;;;5029663;28;20044;-72
2021/12/06 14:40:30;;;;;;;3.08;1.25;;;14.80;70.80;;;;;;5027802;28;20044;-71
2021/12/06 14:43:38;;;;;;;2.45;1.17;;;14.00;70.70;;;;;;5029724;28;20044;-72
2021/12/06 14:46:42;;;;;;;2.50;1.40;;;14.60;71.00;;;;;;5029711;28;20060;-71
2021/12/06 14:49:48;;;;;;;3.63;1.70;;;14.50;69.30;;;;;;5031211;28;20049;-71
2021/12/06 14:52:54;;;;;;;4.25;1.80;;;13.00;71.30;;;;;;5032024;28;20591;-72
2021/12/06 14:59:24;;;;;;;2.00;1.05;;;13.40;74.00;;;;;;5032793;28;20040;-72
2021/12/06 15:02:34;;;;;;;3.38;1.92;;;13.90;69.10;;;;;;5033034;28;20048;-72
2021/12/06 15:06:03;;;;;;;3.30;1.52;;;13.30;70.20;;;;;;5029226;28;20045;-71
2021/12/06 15:09:16;;;;;;;4.15;1.60;;;12.70;73.70;;;;;;5032939;28;20045;-72
2021/12/06 15:12:22;;;;;;;2.28;1.10;;;13.10;74.40;;;;;;5030697;28;20071;-72
2021/12/06 15:15:31;;;;;;;1.98;1.23;;;13.60;74.70;;;;;;5027168;28;20052;-72
2021/12/06 15:18:38;;;;;;;1.52;0.90;;;13.80;74.70;;;;;;5026555;28;20037;-72
2021/12/06 15:21:51;;;;;;;2.58;1.30;;;13.90;75.40;;;;;;5029146;28;20085;-72
2021/12/06 15:24:56;;;;;;;2.40;1.20;;;13.30;75.50;;;;;;5034434;28;20057;-72
2021/12/06 15:28:00;;;;;;;2.33;1.23;;;12.30;74.40;;;;;;5030936;28;20052;-71
2021/12/06 15:31:08;;;;;;;2.10;1.08;;;11.50;75.70;;;;;;5023682;28;20041;-72
2021/12/06 15:34:12;;;;;;;2.33;1.30;;;10.70;77.40;;;;;;5026844;28;20048;-72
2021/12/06 15:37:25;;;;;;;2.75;1.20;;;10.00;82.30;;;;;;5026086;28;20044;-72
2021/12/06 15:40:29;;;;;;;8.73;4.88;;;9.40;85.40;;;;;;5025245;28;20052;-72
2021/12/06 15:43:41;;;;;;;6.10;3.25;;;9.00;87.70;;;;;;5029435;28;20037;-72
2021/12/06 15:46:58;;;;;;;8.20;2.45;;;8.60;87.20;;;;;;5018690;28;20041;-72
2021/12/06 15:50:10;;;;;;;2.55;1.60;;;8.20;88.80;;;;;;5032447;28;20037;-71
2021/12/06 15:53:16;;;;;;;1.70;1.33;;;7.80;89.60;;;;;;5031134;28;20037;-71
2021/12/06 15:56:21;;;;;;;6.68;1.80;;;7.50;92.30;;;;;;5030832;28;20034;-71
2021/12/06 15:59:25;;;;;;;3.72;1.42;;;7.20;91.90;;;;;;5018629;28;20033;-71
2021/12/06 16:02:33;;;;;;;2.42;1.30;;;6.90;92.70;;;;;;5031513;28;20041;-71
2021/12/06 16:05:42;;;;;;;17.17;7.72;;;6.70;94.00;;;;;;5027812;28;20037;-71
2021/12/06 16:08:49;;;;;;;3.13;1.67;;;6.60;95.60;;;;;;5030072;28;20052;-71
2021/12/06 16:12:01;;;;;;;3.55;2.30;;;6.50;96.60;;;;;;5022223;28;20369;-71
2021/12/06 16:15:06;;;;;;;6.10;1.60;;;6.40;97.20;;;;;;5024355;28;20022;-71
2021/12/06 16:18:17;;;;;;;4.60;1.70;;;6.30;97.60;;;;;;5023854;28;20042;-72
2021/12/06 16:21:34;;;;;;;6.10;1.80;;;6.20;98.20;;;;;;5026147;28;20049;-71
2021/12/06 16:24:47;;;;;;;2.38;1.48;;;6.10;98.20;;;;;;5031287;28;20029;-71
2021/12/06 16:28:05;;;;;;;12.32;6.18;;;6.00;98.90;;;;;;5030026;28;20346;-71
2021/12/06 16:31:10;;;;;;;5.22;2.80;;;5.80;99.60;;;;;;5028786;28;20040;-71
2021/12/06 16:34:19;;;;;;;5.72;2.20;;;5.80;99.90;;;;;;5032151;28;20462;-71
2021/12/06 16:37:27;;;;;;;22.38;12.70;;;5.70;99.90;;;;;;5029382;28;20041;-71
2021/12/06 16:40:39;;;;;;;3.90;2.10;;;5.70;99.90;;;;;;5031107;28;20036;-71
2021/12/06 16:43:46;;;;;;;2.83;1.25;;;5.60;99.90;;;;;;5029073;28;20329;-71